Time;durP1;ratioP1;P1;durP2;ratioP2;P2;SDS_P1;SDS_P2;PMS_P1;PMS_P2;Temp;Humidity;BMP_temperature;BMP_pressure;BME280_temperature;BME280_humidity;BME280_pressure;Samples;Min_cycle;Max_cycle;Signal;HPM_P1;HPM_P2
2023/12/31 00:00:58;;;;;;;;;;;;;;;19.72;46.52;100724.53;2062535;28;6128;-68
2023/12/31 00:01:59;;;;;;;;;;;;;;;19.73;46.71;100728.91;2059518;28;1650;-68
2023/12/31 00:03:01;;;;;;;;;;;;;;;19.74;46.59;100727.50;2061540;28;1568;-68
2023/12/31 00:04:02;;;;;;;;;;;;;;;19.74;46.68;100727.50;2059165;28;1873;-68
2023/12/31 00:05:04;;;;;;;;;;;;;;;19.75;46.63;100723.25;2058938;28;2108;-68
2023/12/31 00:06:06;;;;;;;;;;;;;;;19.75;46.62;100729.75;2056888;28;2077;-68
2023/12/31 00:07:07;;;;;;;;;;;;;;;19.76;46.57;100727.59;2061385;28;2434;-69
2023/12/31 00:08:11;;;;;;;;;;;;;;;19.75;46.62;100726.88;2056433;28;1942;-69
2023/12/31 00:09:12;;;;;;;;;;;;;;;19.76;46.83;100731.22;2057750;28;1697;-69
2023/12/31 00:10:13;;;;;;;;;;;;;;;19.76;46.57;100725.47;2063065;28;2044;-69
2023/12/31 00:11:15;;;;;;;;;;;;;;;19.77;46.81;100726.19;2060596;28;1962;-69
2023/12/31 00:12:16;;;;;;;;;;;;;;;19.76;46.88;100727.59;2060440;28;2089;-69
2023/12/31 00:13:18;;;;;;;;;;;;;;;19.77;46.73;100720.44;2062653;28;1722;-68
2023/12/31 00:14:19;;;;;;;;;;;;;;;19.77;46.75;100732.72;2053958;28;1730;-69
2023/12/31 00:15:20;;;;;;;;;;;;;;;19.77;46.77;100726.19;2051147;28;2159;-69
2023/12/31 00:16:22;;;;;;;;;;;;;;;19.76;46.85;100725.47;2059218;28;2110;-69
2023/12/31 00:17:23;;;;;;;;;;;;;;;19.77;46.88;100720.44;2061512;28;1896;-69
2023/12/31 00:18:25;;;;;;;;;;;;;;;19.76;46.79;100718.97;2062033;28;1647;-69
2023/12/31 00:19:26;;;;;;;;;;;;;;;19.75;46.85;100726.88;2060001;28;1654;-68
2023/12/31 00:20:28;;;;;;;;;;;;;;;19.76;46.81;100722.59;2056484;28;2015;-69
2023/12/31 00:21:29;;;;;;;;;;;;;;;19.76;46.87;100713.22;2058458;28;2186;-68
2023/12/31 00:22:30;;;;;;;;;;;;;;;19.76;46.84;100716.09;2061442;28;1572;-68
2023/12/31 00:23:32;;;;;;;;;;;;;;;19.75;46.77;100706.03;2060538;28;1638;-69
2023/12/31 00:24:33;;;;;;;;;;;;;;;19.76;46.88;100713.97;2058460;28;2088;-69
2023/12/31 00:25:35;;;;;;;;;;;;;;;19.75;46.75;100709.63;2057468;28;2093;-68
2023/12/31 00:26:36;;;;;;;;;;;;;;;19.76;46.89;100713.22;2061646;28;2076;-68
2023/12/31 00:27:38;;;;;;;;;;;;;;;19.76;46.81;100711.09;2060779;28;1918;-68
2023/12/31 00:28:40;;;;;;;;;;;;;;;19.75;46.91;100706.03;2060044;28;1948;-69
2023/12/31 00:29:41;;;;;;;;;;;;;;;19.75;46.95;100708.91;2060795;28;1857;-68
2023/12/31 00:30:43;;;;;;;;;;;;;;;19.75;46.77;100706.03;2058106;28;6211;-69
2023/12/31 00:31:44;;;;;;;;;;;;;;;19.75;46.96;100703.16;2060691;28;1798;-68
2023/12/31 00:32:46;;;;;;;;;;;;;;;19.74;47.01;100701.66;2059901;28;1867;-68
2023/12/31 00:33:47;;;;;;;;;;;;;;;19.75;46.78;100706.03;2052856;28;1607;-69
2023/12/31 00:34:49;;;;;;;;;;;;;;;19.74;46.80;100704.53;2051538;28;1805;-68
2023/12/31 00:35:50;;;;;;;;;;;;;;;19.73;47.06;100695.16;2058943;28;2086;-68
2023/12/31 00:36:52;;;;;;;;;;;;;;;19.74;47.06;100698.78;2057153;28;1563;-68
2023/12/31 00:37:53;;;;;;;;;;;;;;;19.74;46.75;100698.78;2063728;28;1476;-69
2023/12/31 00:38:55;;;;;;;;;;;;;;;19.73;46.84;100697.31;2060100;28;2104;-69
2023/12/31 00:39:57;;;;;;;;;;;;;;;19.72;46.88;100693.66;2062084;28;2176;-68
2023/12/31 00:40:59;;;;;;;;;;;;;;;19.72;46.95;100692.94;2065869;28;1999;-68
2023/12/31 00:42:00;;;;;;;;;;;;;;;19.72;46.86;100692.94;2059369;28;2105;-68
2023/12/31 00:43:01;;;;;;;;;;;;;;;19.72;46.83;100690.06;2064577;28;1541;-68
2023/12/31 00:44:03;;;;;;;;;;;;;;;19.72;47.02;100696.53;2067246;28;1583;-68
2023/12/31 00:45:05;;;;;;;;;;;;;;;19.71;46.97;100694.34;2062751;28;2085;-68
2023/12/31 00:46:06;;;;;;;;;;;;;;;19.70;46.90;100698.59;2063194;28;2161;-68
2023/12/31 00:47:08;;;;;;;;;;;;;;;19.71;46.88;100694.34;2060328;28;1652;-68
2023/12/31 00:48:09;;;;;;;;;;;;;;;19.69;46.86;100697.84;2059832;28;1982;-68
2023/12/31 00:49:11;;;;;;;;;;;;;;;19.69;46.80;100694.22;2061567;28;2006;-68
2023/12/31 00:50:12;;;;;;;;;;;;;;;19.68;47.08;100696.34;2060340;28;1598;-69
2023/12/31 00:51:14;;;;;;;;;;;;;;;19.69;46.99;100688.50;2059838;28;1615;-68
2023/12/31 00:52:15;;;;;;;;;;;;;;;19.67;47.03;100684.09;2061825;28;1650;-69
2023/12/31 00:53:17;;;;;;;;;;;;;;;19.68;47.02;100687.72;2061983;28;2026;-68
2023/12/31 00:54:18;;;;;;;;;;;;;;;19.67;46.88;100686.97;2062852;28;1872;-68
2023/12/31 00:55:20;;;;;;;;;;;;;;;19.67;46.91;100689.09;2060043;28;1928;-68
2023/12/31 00:56:21;;;;;;;;;;;;;;;19.67;46.99;100686.22;2063430;28;1801;-68
2023/12/31 00:57:23;;;;;;;;;;;;;;;19.66;47.01;100685.50;2061848;28;1810;-68
2023/12/31 00:58:24;;;;;;;;;;;;;;;19.66;47.04;100688.38;2060822;28;2256;-69
2023/12/31 00:59:26;;;;;;;;;;;;;;;19.66;47.07;100688.38;2062843;28;2281;-68
2023/12/31 01:00:27;;;;;;;;;;;;;;;19.66;46.87;100684.75;2063926;28;6268;-68
2023/12/31 01:01:28;;;;;;;;;;;;;;;19.66;46.94;100679.00;2060226;28;2096;-69
2023/12/31 01:02:30;;;;;;;;;;;;;;;19.65;47.04;100686.91;2059368;28;2268;-69
2023/12/31 01:03:33;;;;;;;;;;;;;;;19.65;46.92;100678.28;2060040;28;1702;-68
2023/12/31 01:04:35;;;;;;;;;;;;;;;19.65;46.99;100689.78;2062265;28;1941;-69
2023/12/31 01:05:37;;;;;;;;;;;;;;;19.65;46.98;100686.91;2060419;28;1568;-68
2023/12/31 01:06:38;;;;;;;;;;;;;;;19.64;46.99;100684.66;2067193;28;1678;-69
2023/12/31 01:07:40;;;;;;;;;;;;;;;19.63;46.89;100681.06;2060092;28;2066;-69
2023/12/31 01:08:41;;;;;;;;;;;;;;;19.64;46.90;100682.53;2063638;28;2203;-68
2023/12/31 01:09:43;;;;;;;;;;;;;;;19.63;46.93;100683.91;2061471;28;1838;-68
2023/12/31 01:10:44;;;;;;;;;;;;;;;19.63;46.99;100683.91;2063588;28;1638;-68
2023/12/31 01:11:46;;;;;;;;;;;;;;;19.64;46.98;100682.53;2061842;28;1918;-69
2023/12/31 01:12:47;;;;;;;;;;;;;;;19.63;46.99;100678.19;2062703;28;2189;-68
2023/12/31 01:13:48;;;;;;;;;;;;;;;19.62;46.97;100682.44;2063110;28;1873;-68
2023/12/31 01:14:50;;;;;;;;;;;;;;;19.63;46.87;100681.06;2064117;28;1936;-69
2023/12/31 01:15:51;;;;;;;;;;;;;;;19.62;46.88;100685.28;2062035;28;2026;-68
2023/12/31 01:16:53;;;;;;;;;;;;;;;19.63;46.91;100671.66;2062008;28;2035;-69
2023/12/31 01:17:54;;;;;;;;;;;;;;;19.63;46.85;100683.91;2062505;28;2134;-68
2023/12/31 01:18:56;;;;;;;;;;;;;;;19.62;46.89;100670.94;2057618;28;2043;-69
2023/12/31 01:19:57;;;;;;;;;;;;;;;19.63;46.89;100672.44;2063586;28;1686;-69
2023/12/31 01:20:58;;;;;;;;;;;;;;;19.62;46.77;100673.81;2058400;28;2015;-68
2023/12/31 01:22:00;;;;;;;;;;;;;;;19.61;46.86;100678.09;2061493;28;1860;-68
2023/12/31 01:23:01;;;;;;;;;;;;;;;19.61;46.70;100674.47;2059485;28;2495;-68
2023/12/31 01:24:04;;;;;;;;;;;;;;;19.62;46.84;100673.81;2062099;28;1690;-69
2023/12/31 01:25:05;;;;;;;;;;;;;;;19.61;46.88;100675.22;2060499;28;1790;-68
2023/12/31 01:26:06;;;;;;;;;;;;;;;19.61;46.80;100675.22;2063139;28;1598;-68
2023/12/31 01:27:08;;;;;;;;;;;;;;;19.62;46.78;100675.94;2057615;28;1718;-68
2023/12/31 01:28:10;;;;;;;;;;;;;;;19.61;46.87;100677.34;2058317;28;2185;-68
2023/12/31 01:29:11;;;;;;;;;;;;;;;19.60;46.80;100673.72;2060783;28;2093;-68
2023/12/31 01:30:12;;;;;;;;;;;;;;;19.60;46.79;100673.72;2059659;28;6111;-68
2023/12/31 01:31:20;;;;;;;;;;;;;;;19.61;46.84;100680.22;2056877;28;2109;-68
2023/12/31 01:32:21;;;;;;;;;;;;;;;19.60;46.76;100673.72;2063862;28;1683;-68
2023/12/31 01:33:23;;;;;;;;;;;;;;;19.60;46.80;100670.09;2063123;28;1869;-69
2023/12/31 01:34:24;;;;;;;;;;;;;;;19.59;46.89;100672.25;2062562;28;1719;-68
2023/12/31 01:35:26;;;;;;;;;;;;;;;19.59;46.94;100669.38;2061884;28;2025;-68
2023/12/31 01:36:27;;;;;;;;;;;;;;;19.59;46.81;100669.38;2064034;28;2054;-69
2023/12/31 01:37:29;;;;;;;;;;;;;;;19.58;47.01;100676.47;2062854;28;2055;-69
2023/12/31 01:38:31;;;;;;;;;;;;;;;19.59;46.76;100674.38;2056716;28;2103;-68
2023/12/31 01:39:32;;;;;;;;;;;;;;;19.59;46.88;100672.25;2063733;28;1960;-69
2023/12/31 01:40:34;;;;;;;;;;;;;;;19.59;46.77;100672.25;2064985;28;1936;-69
2023/12/31 01:41:35;;;;;;;;;;;;;;;19.59;46.89;100666.50;2060213;28;1793;-69
2023/12/31 01:42:36;;;;;;;;;;;;;;;19.60;46.78;100673.72;2064563;28;1667;-68
2023/12/31 01:43:38;;;;;;;;;;;;;;;19.61;46.71;100675.22;2063051;28;1695;-69
2023/12/31 01:44:39;;;;;;;;;;;;;;;19.61;46.74;100669.47;2052038;28;2073;-69
2023/12/31 01:45:41;;;;;;;;;;;;;;;19.61;46.69;100663.72;2052832;28;2138;-68
2023/12/31 01:46:42;;;;;;;;;;;;;;;19.62;46.77;100670.94;2060160;28;2094;-69
2023/12/31 01:47:44;;;;;;;;;;;;;;;19.62;46.75;100665.19;2058905;28;2377;-68
2023/12/31 01:48:45;;;;;;;;;;;;;;;19.63;46.59;100665.94;2062007;28;2008;-69
2023/12/31 01:49:46;;;;;;;;;;;;;;;19.63;46.69;100666.69;2058822;28;1988;-69
2023/12/31 01:50:48;;;;;;;;;;;;;;;19.63;46.69;100660.94;2061788;28;1959;-68
2023/12/31 01:51:50;;;;;;;;;;;;;;;19.63;46.74;100660.94;2061397;28;2392;-69
2023/12/31 01:52:51;;;;;;;;;;;;;;;19.64;46.88;100650.94;2059431;28;1706;-68
2023/12/31 01:53:53;;;;;;;;;;;;;;;19.64;47.02;100662.41;2053448;28;1651;-69
2023/12/31 01:54:54;;;;;;;;;;;;;;;19.63;46.90;100655.19;2053390;28;2146;-69
2023/12/31 01:55:55;;;;;;;;;;;;;;;19.64;46.81;100653.06;2058684;28;2105;-68
2023/12/31 01:56:57;;;;;;;;;;;;;;;19.64;46.89;100645.19;2062578;28;1631;-68
2023/12/31 01:57:58;;;;;;;;;;;;;;;19.64;47.00;100656.66;2059001;28;2104;-69
2023/12/31 01:59:00;;;;;;;;;;;;;;;19.64;47.02;100653.06;2056915;28;2096;-69
2023/12/31 02:00:03;;;;;;;;;;;;;;;19.64;47.04;100645.19;2057838;28;2154;-68
2023/12/31 02:01:05;;;;;;;;;;;;;;;19.64;46.99;100647.31;2057192;28;6006;-68
2023/12/31 02:02:06;;;;;;;;;;;;;;;19.64;47.01;100642.31;2059585;28;2260;-68
2023/12/31 02:03:08;;;;;;;;;;;;;;;19.63;46.82;100640.84;2062263;28;2264;-68
2023/12/31 02:04:09;;;;;;;;;;;;;;;19.63;46.99;100643.72;2052525;28;1870;-69
2023/12/31 02:05:11;;;;;;;;;;;;;;;19.63;46.92;100643.72;2050028;28;1723;-69
2023/12/31 02:06:13;;;;;;;;;;;;;;;19.63;46.94;100637.19;2059363;28;2138;-68
2023/12/31 02:07:14;;;;;;;;;;;;;;;19.63;47.01;100643.72;2057752;28;1650;-69
2023/12/31 02:08:16;;;;;;;;;;;;;;;19.62;46.87;100645.09;2060181;28;2342;-69
2023/12/31 02:09:17;;;;;;;;;;;;;;;19.63;46.94;100642.94;2057729;28;2344;-69
2023/12/31 02:10:18;;;;;;;;;;;;;;;19.62;46.94;100636.47;2064606;28;1648;-68
2023/12/31 02:11:20;;;;;;;;;;;;;;;19.63;46.79;100643.72;2061408;28;2180;-69
2023/12/31 02:12:22;;;;;;;;;;;;;;;19.62;46.77;100641.47;2063168;28;2114;-68
2023/12/31 02:13:24;;;;;;;;;;;;;;;19.62;46.92;100635.72;2061113;28;1742;-68
2023/12/31 02:14:25;;;;;;;;;;;;;;;19.61;46.92;100637.13;2058910;28;1781;-68
2023/12/31 02:15:33;;;;;;;;;;;;;;;19.61;46.92;100628.53;2061353;28;2248;-68
2023/12/31 02:16:35;;;;;;;;;;;;;;;19.59;46.97;100637.78;2059710;28;1798;-68
2023/12/31 02:17:36;;;;;;;;;;;;;;;19.60;46.97;100632.75;2062135;28;2114;-68
2023/12/31 02:18:38;;;;;;;;;;;;;;;19.60;46.86;100638.50;2059069;28;2274;-69
2023/12/31 02:19:39;;;;;;;;;;;;;;;19.59;46.89;100629.16;2063238;28;2058;-68
2023/12/31 02:20:41;;;;;;;;;;;;;;;19.58;46.84;100624.78;2062486;28;1702;-68
2023/12/31 02:21:42;;;;;;;;;;;;;;;19.58;46.83;100624.78;2060865;28;2074;-68
2023/12/31 02:22:44;;;;;;;;;;;;;;;19.59;47.11;100631.28;2060479;28;1634;-68
2023/12/31 02:23:45;;;;;;;;;;;;;;;19.57;46.76;100629.06;2061647;28;1921;-68
2023/12/31 02:24:47;;;;;;;;;;;;;;;19.59;46.93;100619.81;2060819;28;1794;-69
2023/12/31 02:25:54;;;;;;;;;;;;;;;19.58;46.88;100624.78;2061419;28;2140;-68
2023/12/31 02:26:56;;;;;;;;;;;;;;;19.58;46.76;100624.78;2057699;28;1568;-69
2023/12/31 02:27:57;;;;;;;;;;;;;;;19.58;46.72;100624.78;2057591;28;2348;-69
2023/12/31 02:28:59;;;;;;;;;;;;;;;19.58;46.68;100621.91;2060538;28;2035;-68
2023/12/31 02:30:00;;;;;;;;;;;;;;;19.57;46.80;100623.31;2050755;28;1767;-68
2023/12/31 02:31:05;;;;;;;;;;;;;;;19.58;46.78;100626.91;2051115;28;6257;-68
2023/12/31 02:32:06;;;;;;;;;;;;;;;19.58;46.84;100629.78;2057035;28;2217;-68
2023/12/31 02:33:07;;;;;;;;;;;;;;;19.56;46.81;100621.84;2061754;28;2360;-68
2023/12/31 02:34:09;;;;;;;;;;;;;;;19.55;47.00;100620.34;2059595;28;2071;-68
2023/12/31 02:35:10;;;;;;;;;;;;;;;19.56;46.85;100616.09;2058273;28;2091;-69
2023/12/31 02:36:12;;;;;;;;;;;;;;;19.55;46.82;100608.88;2056361;28;2333;-69
2023/12/31 02:37:13;;;;;;;;;;;;;;;19.55;46.80;100614.59;2062164;28;1533;-68
2023/12/31 02:38:15;;;;;;;;;;;;;;;19.53;46.88;100617.38;2061942;28;2050;-69
2023/12/31 02:39:16;;;;;;;;;;;;;;;19.55;46.86;100613.88;2056200;28;2102;-68
2023/12/31 02:40:18;;;;;;;;;;;;;;;19.54;46.84;100609.50;2059689;28;1792;-69
2023/12/31 02:41:20;;;;;;;;;;;;;;;19.53;46.68;100617.38;2059645;28;1728;-69
2023/12/31 02:42:21;;;;;;;;;;;;;;;19.53;46.75;100611.63;2058660;28;2106;-68
2023/12/31 02:43:22;;;;;;;;;;;;;;;19.53;46.73;100617.38;2061585;28;1963;-69
2023/12/31 02:44:24;;;;;;;;;;;;;;;19.53;46.84;100614.50;2060600;28;1662;-68
2023/12/31 02:45:25;;;;;;;;;;;;;;;19.52;46.97;100604.41;2056634;28;2024;-68
2023/12/31 02:46:27;;;;;;;;;;;;;;;19.53;46.95;100605.88;2060650;28;1869;-68
2023/12/31 02:47:28;;;;;;;;;;;;;;;19.52;46.92;100609.44;2060785;28;1996;-68
2023/12/31 02:48:30;;;;;;;;;;;;;;;19.53;46.81;100605.16;2062329;28;2384;-68
2023/12/31 02:49:31;;;;;;;;;;;;;;;19.51;46.82;100602.19;2061965;28;1678;-68
2023/12/31 02:50:32;;;;;;;;;;;;;;;19.51;46.82;100614.41;2061003;28;2108;-69
2023/12/31 02:51:36;;;;;;;;;;;;;;;19.52;46.84;100609.44;2060933;28;1647;-69
2023/12/31 02:52:37;;;;;;;;;;;;;;;19.51;46.83;100608.66;2059651;28;2097;-68
2023/12/31 02:53:39;;;;;;;;;;;;;;;19.50;46.77;100604.31;2061544;28;1802;-69
2023/12/31 02:54:41;;;;;;;;;;;;;;;19.52;46.77;100600.81;2058686;28;2105;-68
2023/12/31 02:55:42;;;;;;;;;;;;;;;19.51;46.71;100597.19;2058220;28;2122;-69
2023/12/31 02:56:44;;;;;;;;;;;;;;;19.51;46.75;100602.19;2057340;28;2184;-68
2023/12/31 02:57:45;;;;;;;;;;;;;;;19.50;46.92;100589.97;2058801;28;2028;-69
2023/12/31 02:58:46;;;;;;;;;;;;;;;19.50;46.70;100589.97;2062444;28;1918;-68
2023/12/31 02:59:48;;;;;;;;;;;;;;;19.49;46.82;100594.22;2061837;28;1821;-69
2023/12/31 03:00:49;;;;;;;;;;;;;;;19.48;46.85;100589.88;2057421;28;6233;-69
2023/12/31 03:01:51;;;;;;;;;;;;;;;19.48;46.73;100581.25;2062215;28;2106;-69
2023/12/31 03:02:53;;;;;;;;;;;;;;;19.49;46.83;100585.59;2057472;28;2173;-68
2023/12/31 03:03:54;;;;;;;;;;;;;;;19.49;46.85;100576.25;2060119;28;1985;-68
2023/12/31 03:04:55;;;;;;;;;;;;;;;19.49;46.79;100582.72;2059267;28;1710;-69
2023/12/31 03:05:57;;;;;;;;;;;;;;;19.48;46.86;100575.50;2058000;28;2061;-68
2023/12/31 03:06:58;;;;;;;;;;;;;;;19.48;46.81;100578.38;2061687;28;2070;-69
2023/12/31 03:08:00;;;;;;;;;;;;;;;19.47;46.75;100576.91;2059758;28;2121;-68
2023/12/31 03:09:02;;;;;;;;;;;;;;;19.47;46.87;100574.03;2060188;28;2343;-68
2023/12/31 03:10:03;;;;;;;;;;;;;;;19.47;46.90;100574.03;2061997;28;1873;-69
2023/12/31 03:11:06;;;;;;;;;;;;;;;19.47;46.75;100574.03;2060638;28;1634;-68
2023/12/31 03:12:08;;;;;;;;;;;;;;;19.47;46.85;100579.78;2062173;28;1686;-69
2023/12/31 03:13:09;;;;;;;;;;;;;;;19.46;46.83;100572.53;2061787;28;2062;-68
2023/12/31 03:14:12;;;;;;;;;;;;;;;19.46;46.81;100576.16;2059559;28;2078;-68
2023/12/31 03:15:14;;;;;;;;;;;;;;;19.45;46.89;100576.81;2063418;28;2074;-69
2023/12/31 03:16:15;;;;;;;;;;;;;;;19.46;46.74;100566.81;2057681;28;1710;-68
2023/12/31 03:17:16;;;;;;;;;;;;;;;19.45;46.72;100576.81;2060804;28;2151;-68
2023/12/31 03:18:18;;;;;;;;;;;;;;;19.45;46.76;100571.06;2061500;28;2103;-68
2023/12/31 03:19:19;;;;;;;;;;;;;;;19.45;46.67;100563.19;2058767;28;1971;-68
2023/12/31 03:20:21;;;;;;;;;;;;;;;19.45;46.66;100562.47;2058846;28;2106;-69
2023/12/31 03:21:23;;;;;;;;;;;;;;;19.44;46.71;100555.97;2063376;28;1909;-68
2023/12/31 03:22:24;;;;;;;;;;;;;;;19.44;46.59;100558.09;2061307;28;1676;-69
2023/12/31 03:23:41;;;;;;;;;;;;;;;19.44;46.70;100552.34;2060955;28;2392;-69
2023/12/31 03:24:43;;;;;;;;;;;;;;;19.44;46.67;100552.34;2059711;28;2214;-69
2023/12/31 03:25:44;;;;;;;;;;;;;;;19.43;46.62;100557.34;2061349;28;1591;-68
2023/12/31 03:26:46;;;;;;;;;;;;;;;19.43;46.68;100563.09;2061430;28;1578;-69
2023/12/31 03:27:47;;;;;;;;;;;;;;;19.44;46.58;100563.84;2059480;28;2177;-68
2023/12/31 03:28:48;;;;;;;;;;;;;;;19.43;46.67;100557.34;2059985;28;1909;-68
2023/12/31 03:29:50;;;;;;;;;;;;;;;19.42;46.60;100550.16;2062683;28;1914;-68
2023/12/31 03:30:51;;;;;;;;;;;;;;;19.42;46.72;100553.03;2061456;28;6310;-69
2023/12/31 03:31:53;;;;;;;;;;;;;;;19.42;46.70;100561.63;2061167;28;1587;-69
2023/12/31 03:32:54;;;;;;;;;;;;;;;19.43;46.65;100551.63;2060098;28;2161;-69
2023/12/31 03:33:56;;;;;;;;;;;;;;;19.43;46.63;100562.38;2060337;28;1961;-69
2023/12/31 03:34:58;;;;;;;;;;;;;;;19.43;46.58;100562.38;2058848;28;2065;-68
2023/12/31 03:35:59;;;;;;;;;;;;;;;19.43;46.60;100550.88;2063577;28;1573;-69
2023/12/31 03:37:01;;;;;;;;;;;;;;;19.43;46.59;100548.75;2061528;28;2061;-69
2023/12/31 03:38:02;;;;;;;;;;;;;;;19.44;46.68;100544.47;2058105;28;2102;-68
2023/12/31 03:39:03;;;;;;;;;;;;;;;19.45;46.57;100542.38;2058942;28;2077;-68
2023/12/31 03:40:05;;;;;;;;;;;;;;;19.45;46.57;100542.38;2062742;28;2372;-68
2023/12/31 03:41:07;;;;;;;;;;;;;;;19.46;46.57;100549.56;2060320;28;1821;-69
2023/12/31 03:42:08;;;;;;;;;;;;;;;19.47;46.90;100545.31;2062011;28;1984;-68
2023/12/31 03:43:09;;;;;;;;;;;;;;;19.48;46.65;100546.78;2060376;28;2348;-69
2023/12/31 03:44:11;;;;;;;;;;;;;;;19.49;46.63;100547.53;2058046;28;1635;-69
2023/12/31 03:45:12;;;;;;;;;;;;;;;19.49;46.63;100541.78;2061111;28;2160;-68
2023/12/31 03:46:14;;;;;;;;;;;;;;;19.49;46.58;100542.53;2063260;28;1553;-68
2023/12/31 03:47:16;;;;;;;;;;;;;;;19.49;46.67;100544.66;2057164;28;1810;-68
2023/12/31 03:48:17;;;;;;;;;;;;;;;19.51;46.77;100542.63;2060378;28;2260;-68
2023/12/31 03:49:19;;;;;;;;;;;;;;;19.51;46.88;100551.22;2059069;28;2027;-69
2023/12/31 03:50:20;;;;;;;;;;;;;;;19.51;46.95;100545.50;2060017;28;2092;-68
2023/12/31 03:51:22;;;;;;;;;;;;;;;19.50;46.81;100541.16;2058203;28;2072;-69
2023/12/31 03:52:24;;;;;;;;;;;;;;;19.52;46.61;100541.25;2060448;28;1750;-68
2023/12/31 03:53:25;;;;;;;;;;;;;;;19.52;46.65;100534.75;2062188;28;2140;-69
2023/12/31 03:54:26;;;;;;;;;;;;;;;19.52;46.96;100544.13;2058290;28;2193;-68
2023/12/31 03:55:28;;;;;;;;;;;;;;;19.52;46.83;100541.25;2057383;28;1994;-69
2023/12/31 03:56:29;;;;;;;;;;;;;;;19.52;46.85;100541.25;2059353;28;2067;-68
2023/12/31 03:57:32;;;;;;;;;;;;;;;19.52;46.87;100526.88;2057240;28;1880;-68
2023/12/31 03:58:34;;;;;;;;;;;;;;;19.52;46.77;100531.88;2057973;28;1952;-68
2023/12/31 03:59:35;;;;;;;;;;;;;;;19.52;46.71;100535.50;2061964;28;1595;-68
2023/12/31 04:00:37;;;;;;;;;;;;;;;19.53;47.03;100533.38;2056844;28;6003;-68
2023/12/31 04:01:44;;;;;;;;;;;;;;;19.53;47.18;100534.09;2057812;28;2111;-68
2023/12/31 04:02:46;;;;;;;;;;;;;;;19.53;47.10;100524.75;2059655;28;2031;-69
2023/12/31 04:03:48;;;;;;;;;;;;;;;19.53;47.21;100536.97;2059658;28;2243;-69
2023/12/31 04:04:49;;;;;;;;;;;;;;;19.53;47.28;100527.63;2061372;28;2070;-68
2023/12/31 04:05:52;;;;;;;;;;;;;;;19.53;47.36;100530.50;2061580;28;2047;-68
2023/12/31 04:06:53;;;;;;;;;;;;;;;19.53;47.28;100530.50;2060031;28;2179;-69
2023/12/31 04:07:55;;;;;;;;;;;;;;;19.52;47.30;100524.00;2059936;28;2249;-69
2023/12/31 04:08:56;;;;;;;;;;;;;;;19.53;47.15;100522.59;2063223;28;2100;-69
2023/12/31 04:09:58;;;;;;;;;;;;;;;19.53;47.19;100522.59;2057880;28;2384;-68
2023/12/31 04:10:59;;;;;;;;;;;;;;;19.54;47.15;100517.59;2058881;28;1628;-69
2023/12/31 04:12:01;;;;;;;;;;;;;;;19.54;47.30;100521.22;2064582;28;1712;-68
2023/12/31 04:13:02;;;;;;;;;;;;;;;19.54;47.50;100521.22;2063630;28;2097;-66
2023/12/31 04:14:04;;;;;;;;;;;;;;;19.55;47.46;100516.22;2063325;28;1892;-68
2023/12/31 04:15:08;;;;;;;;;;;;;;;19.54;47.54;100509.75;2060572;28;2078;-70
2023/12/31 04:16:09;;;;;;;;;;;;;;;19.55;47.66;100511.22;2061635;28;2068;-69
2023/12/31 04:17:10;;;;;;;;;;;;;;;19.56;47.57;100503.34;2062288;28;2252;-68
2023/12/31 04:18:12;;;;;;;;;;;;;;;19.56;47.39;100506.19;2059653;28;2279;-68
2023/12/31 04:19:14;;;;;;;;;;;;;;;19.57;47.66;100508.44;2060124;28;2103;-68
2023/12/31 04:20:16;;;;;;;;;;;;;;;19.57;47.71;100508.44;2062943;28;1598;-68
2023/12/31 04:21:18;;;;;;;;;;;;;;;19.57;47.68;100508.44;2061095;28;2030;-68
2023/12/31 04:22:23;;;;;;;;;;;;;;;19.58;47.79;100509.91;2061323;28;1630;-68
2023/12/31 04:23:24;;;;;;;;;;;;;;;19.57;47.62;100507.69;2062155;28;1996;-68
2023/12/31 04:24:26;;;;;;;;;;;;;;;19.57;47.77;100496.22;2062310;28;2084;-68
2023/12/31 04:25:27;;;;;;;;;;;;;;;19.58;47.38;100507.03;2061025;28;2246;-68
2023/12/31 04:26:29;;;;;;;;;;;;;;;19.57;47.38;100496.22;2063910;28;1630;-68
2023/12/31 04:27:31;;;;;;;;;;;;;;;19.56;47.54;100501.22;2064337;28;2105;-68
2023/12/31 04:28:33;;;;;;;;;;;;;;;19.57;47.41;100501.94;2059393;28;2018;-68
2023/12/31 04:29:34;;;;;;;;;;;;;;;19.57;47.52;100496.94;2062772;28;1976;-68
2023/12/31 04:30:37;;;;;;;;;;;;;;;19.56;47.44;100489.72;2060612;28;6171;-69
2023/12/31 04:31:42;;;;;;;;;;;;;;;19.56;47.65;100491.84;2057681;28;2339;-68
2023/12/31 04:32:44;;;;;;;;;;;;;;;19.56;47.39;100488.97;2061063;28;2107;-68
2023/12/31 04:33:45;;;;;;;;;;;;;;;19.62;47.43;100497.84;2058111;28;2067;-68
2023/12/31 04:34:47;;;;;;;;;;;;;;;19.58;47.35;100497.69;2062624;28;2236;-68
2023/12/31 04:35:48;;;;;;;;;;;;;;;19.60;47.52;100501.38;2062166;28;2194;-67
2023/12/31 04:36:52;;;;;;;;;;;;;;;19.58;47.38;100495.53;2058956;28;2074;-67
2023/12/31 04:37:53;;;;;;;;;;;;;;;19.57;47.42;100494.06;2058936;28;2011;-67
2023/12/31 04:38:55;;;;;;;;;;;;;;;19.57;47.46;100491.19;2062249;28;1889;-67
2023/12/31 04:39:56;;;;;;;;;;;;;;;19.57;47.42;100490.47;2062989;28;1683;-68
2023/12/31 04:40:58;;;;;;;;;;;;;;;19.58;47.34;100491.94;2063516;28;1616;-67
2023/12/31 04:41:59;;;;;;;;;;;;;;;19.58;47.38;100486.91;2060567;28;2115;-67
2023/12/31 04:43:00;;;;;;;;;;;;;;;19.58;47.36;100486.19;2064116;28;2079;-67
2023/12/31 04:44:02;;;;;;;;;;;;;;;19.59;47.42;100485.53;2060097;28;1865;-67
2023/12/31 04:45:07;;;;;;;;;;;;;;;19.60;47.60;100486.28;2061920;28;1659;-67
2023/12/31 04:46:08;;;;;;;;;;;;;;;19.61;47.98;100468.41;2058597;28;2076;-67
2023/12/31 04:47:10;;;;;;;;;;;;;;;19.60;48.25;100478.41;2058676;28;2044;-68
2023/12/31 04:48:12;;;;;;;;;;;;;;;19.61;48.23;100474.16;2059992;28;2158;-67
2023/12/31 04:49:16;;;;;;;;;;;;;;;19.60;47.98;100469.78;2063145;28;1663;-67
2023/12/31 04:50:17;;;;;;;;;;;;;;;19.61;47.77;100474.16;2062708;28;1977;-68
2023/12/31 04:51:22;;;;;;;;;;;;;;;19.60;47.78;100472.66;2059708;28;2162;-68
2023/12/31 04:52:24;;;;;;;;;;;;;;;19.61;47.97;100474.16;2064173;28;2436;-67
2023/12/31 04:53:25;;;;;;;;;;;;;;;19.60;48.65;100472.66;2062794;28;1634;-67
2023/12/31 04:54:27;;;;;;;;;;;;;;;19.61;48.45;100479.91;2057502;28;2137;-67
2023/12/31 04:55:28;;;;;;;;;;;;;;;19.61;48.33;100474.16;2063324;28;1595;-67
2023/12/31 04:56:30;;;;;;;;;;;;;;;19.61;47.88;100464.81;2062191;28;1669;-68
2023/12/31 04:57:31;;;;;;;;;;;;;;;19.60;47.75;100464.03;2061015;28;1928;-68
2023/12/31 04:58:32;;;;;;;;;;;;;;;19.61;48.30;100459.06;2063173;28;1630;-67
2023/12/31 04:59:34;;;;;;;;;;;;;;;19.62;48.50;100464.13;2062001;28;2083;-67
2023/12/31 05:00:35;;;;;;;;;;;;;;;19.61;48.75;100454.03;2060141;28;6347;-67
2023/12/31 05:01:37;;;;;;;;;;;;;;;19.62;48.11;100457.66;2060819;28;2051;-67
2023/12/31 05:02:38;;;;;;;;;;;;;;;19.61;48.06;100451.16;2058371;28;2179;-67
2023/12/31 05:03:40;;;;;;;;;;;;;;;19.63;47.86;100457.00;2060749;28;1742;-67
2023/12/31 05:04:41;;;;;;;;;;;;;;;19.62;48.04;100449.75;2063370;28;1722;-68
2023/12/31 05:05:42;;;;;;;;;;;;;;;19.63;47.96;100448.38;2057156;28;1737;-68
2023/12/31 05:06:44;;;;;;;;;;;;;;;19.63;48.05;100456.25;2061875;28;2189;-67
2023/12/31 05:07:45;;;;;;;;;;;;;;;19.64;48.22;100454.88;2061857;28;2098;-67
2023/12/31 05:08:47;;;;;;;;;;;;;;;19.63;48.42;100457.00;2063772;28;1575;-67
2023/12/31 05:09:49;;;;;;;;;;;;;;;19.64;48.76;100457.75;2062217;28;1667;-67
2023/12/31 05:10:51;;;;;;;;;;;;;;;19.64;48.85;100449.84;2061191;28;1920;-68
2023/12/31 05:11:52;;;;;;;;;;;;;;;19.64;48.60;100455.59;2062499;28;2182;-67
2023/12/31 05:12:54;;;;;;;;;;;;;;;19.64;48.35;100449.84;2063431;28;2015;-67
2023/12/31 05:13:56;;;;;;;;;;;;;;;19.64;48.54;100449.13;2060177;28;1916;-67
2023/12/31 05:14:58;;;;;;;;;;;;;;;19.64;48.41;100452.72;2061246;28;1947;-67
2023/12/31 05:15:59;;;;;;;;;;;;;;;19.66;48.91;100452.09;2057927;28;2406;-67
2023/12/31 05:17:01;;;;;;;;;;;;;;;19.65;49.16;100450.59;2062827;28;2030;-68
2023/12/31 05:18:02;;;;;;;;;;;;;;;19.64;48.87;100449.84;2058926;28;2409;-68
2023/12/31 05:19:04;;;;;;;;;;;;;;;19.64;48.47;100446.25;2061522;28;1647;-67
2023/12/31 05:20:07;;;;;;;;;;;;;;;19.64;48.20;100449.84;2063158;28;2074;-67
2023/12/31 05:21:09;;;;;;;;;;;;;;;19.64;48.42;100444.13;2060516;28;2070;-67
2023/12/31 05:22:10;;;;;;;;;;;;;;;19.64;48.75;100449.13;2059057;28;2064;-67